createdAt,value
2023-02-17T00:00:15.740Z,2.74
2023-02-17T00:01:37.681Z,2.74
2023-02-17T00:02:40.133Z,2.74
2023-02-17T00:03:42.822Z,2.74
2023-02-17T00:04:44.682Z,2.73
2023-02-17T00:05:47.908Z,2.73
2023-02-17T00:06:50.898Z,2.73
2023-02-17T00:07:53.004Z,2.74
2023-02-17T00:08:55.764Z,2.75
2023-02-17T00:09:58.636Z,2.77
2023-02-17T00:11:00.698Z,2.78
2023-02-17T00:12:02.465Z,2.77
2023-02-17T00:13:04.253Z,2.78
2023-02-17T00:14:06.579Z,2.78
2023-02-17T00:15:08.769Z,2.79
2023-02-17T00:16:18.087Z,2.80
2023-02-17T00:17:19.825Z,2.83
2023-02-17T00:18:22.123Z,2.83
2023-02-17T00:19:25.081Z,2.83
2023-02-17T00:20:29.497Z,2.84
2023-02-17T00:21:32.300Z,2.85
2023-02-17T00:22:34.060Z,2.86
2023-02-17T00:23:35.823Z,2.86
2023-02-17T00:24:39.969Z,2.86
2023-02-17T00:25:41.764Z,2.85
2023-02-17T00:26:43.669Z,2.84
2023-02-17T00:27:46.024Z,2.82
2023-02-17T00:28:48.725Z,2.82
2023-02-17T00:29:50.654Z,2.81
2023-02-17T00:30:52.490Z,2.79
2023-02-17T00:31:55.471Z,2.79
2023-02-17T00:32:59.545Z,2.77
2023-02-17T00:34:01.370Z,2.77
2023-02-17T00:35:03.512Z,2.75
2023-02-17T00:36:08.094Z,2.73
2023-02-17T00:37:10.901Z,2.72
2023-02-17T00:38:12.612Z,2.71
2023-02-17T00:39:16.998Z,2.70
2023-02-17T00:40:18.905Z,2.69
2023-02-17T00:41:21.937Z,2.67
2023-02-17T00:42:24.597Z,2.63
2023-02-17T00:43:26.520Z,2.61
2023-02-17T00:44:28.794Z,2.59
2023-02-17T00:45:30.645Z,2.58
2023-02-17T00:46:32.465Z,2.57
2023-02-17T00:47:34.767Z,2.57
2023-02-17T00:48:36.833Z,2.58
2023-02-17T00:49:39.784Z,2.55
2023-02-17T00:50:41.685Z,2.55
2023-02-17T00:51:44.636Z,2.54
2023-02-17T00:52:46.365Z,2.54
2023-02-17T00:53:48.307Z,2.53
2023-02-17T00:54:50.270Z,2.51
2023-02-17T00:55:52.013Z,2.50
2023-02-17T00:56:54.147Z,2.48
2023-02-17T00:57:55.995Z,2.47
2023-02-17T00:58:57.849Z,2.46
2023-02-17T00:59:59.641Z,2.44
2023-02-17T01:01:02.399Z,2.44
2023-02-17T01:02:04.268Z,2.44
2023-02-17T01:03:06.453Z,2.44
2023-02-17T01:04:08.347Z,2.42
2023-02-17T01:05:10.154Z,2.42
2023-02-17T01:06:24.439Z,2.40
2023-02-17T01:07:26.152Z,2.39
2023-02-17T01:08:27.916Z,2.37
2023-02-17T01:09:29.658Z,2.35
2023-02-17T01:10:31.468Z,2.35
2023-02-17T01:11:35.811Z,2.32
2023-02-17T01:12:39.120Z,2.30
2023-02-17T01:13:40.869Z,2.28
2023-02-17T01:14:42.631Z,2.29
2023-02-17T01:15:50.795Z,2.28
2023-02-17T01:16:52.596Z,2.29
2023-02-17T01:17:55.840Z,2.29
2023-02-17T01:18:58.062Z,2.30
2023-02-17T01:19:59.842Z,2.29
2023-02-17T01:21:01.624Z,2.28
2023-02-17T01:22:03.414Z,2.28
2023-02-17T01:23:05.839Z,2.28
2023-02-17T01:24:09.149Z,2.25
2023-02-17T01:25:10.970Z,2.25
2023-02-17T01:26:19.681Z,2.24
2023-02-17T01:27:21.467Z,2.22
2023-02-17T01:28:23.462Z,2.20
2023-02-17T01:29:25.566Z,2.18
2023-02-17T01:30:27.373Z,2.17
2023-02-17T01:31:29.274Z,2.16
2023-02-17T01:32:31.126Z,2.15
2023-02-17T01:33:32.864Z,2.14
2023-02-17T01:34:34.776Z,2.13
2023-02-17T01:35:36.543Z,2.11
2023-02-17T01:36:38.643Z,2.11
2023-02-17T01:37:40.629Z,2.10
2023-02-17T01:38:42.608Z,2.08
2023-02-17T01:39:44.881Z,2.07
2023-02-17T01:40:48.160Z,2.06
2023-02-17T01:41:50.140Z,2.05
2023-02-17T01:42:51.945Z,2.06
2023-02-17T01:44:14.700Z,2.07
2023-02-17T01:45:19.486Z,2.09
2023-02-17T01:46:21.314Z,2.12
2023-02-17T01:47:23.093Z,2.14
2023-02-17T01:48:37.378Z,2.15
2023-02-17T01:49:41.610Z,2.17
2023-02-17T01:50:50.536Z,2.19
2023-02-17T01:52:07.492Z,2.21
2023-02-17T01:53:13.656Z,2.23
2023-02-17T01:54:34.343Z,2.24
2023-02-17T01:55:39.129Z,2.25
2023-02-17T01:56:45.227Z,2.25
2023-02-17T01:57:51.740Z,2.27
2023-02-17T01:59:01.412Z,2.28
2023-02-17T02:00:08.261Z,2.30
2023-02-17T02:01:14.060Z,2.33
2023-02-17T02:02:16.562Z,2.35
2023-02-17T02:03:19.595Z,2.37
2023-02-17T02:04:26.377Z,2.39
2023-02-17T02:05:28.914Z,2.40
2023-02-17T02:06:34.002Z,2.42
2023-02-17T02:07:41.405Z,2.42
2023-02-17T02:09:05.674Z,2.43
2023-02-17T02:10:09.006Z,2.42
2023-02-17T02:11:10.827Z,2.41
2023-02-17T02:12:22.788Z,2.42
2023-02-17T02:13:24.865Z,2.44
2023-02-17T02:14:29.390Z,2.45
2023-02-17T02:15:50.912Z,2.48
2023-02-17T02:17:31.950Z,2.49
2023-02-17T02:18:46.145Z,2.50
2023-02-17T02:20:22.798Z,2.50
2023-02-17T02:21:54.080Z,2.51
2023-02-17T02:23:23.514Z,2.50
2023-02-17T02:24:46.787Z,2.49
2023-02-17T02:26:16.148Z,2.49
2023-02-17T02:27:50.819Z,2.48
2023-02-17T02:29:14.108Z,2.48
2023-02-17T02:30:45.357Z,2.49
2023-02-17T02:32:08.977Z,2.49
2023-02-17T02:33:43.325Z,2.51
2023-02-17T02:35:00.012Z,2.51
2023-02-17T02:36:27.359Z,2.52
2023-02-17T02:37:39.658Z,2.52
2023-02-17T02:38:43.409Z,2.52
2023-02-17T02:39:51.068Z,2.50
2023-02-17T02:41:08.423Z,2.50
2023-02-17T02:42:19.936Z,2.49
2023-02-17T02:43:23.730Z,2.47
2023-02-17T02:44:25.900Z,2.47
2023-02-17T02:45:28.049Z,2.47
2023-02-17T02:46:29.821Z,2.46
2023-02-17T02:47:54.893Z,2.44
2023-02-17T02:49:00.412Z,2.41
2023-02-17T02:50:03.187Z,2.38
2023-02-17T02:51:23.234Z,2.37
2023-02-17T02:52:49.115Z,2.35
2023-02-17T02:54:06.695Z,2.33
2023-02-17T02:55:39.855Z,2.32
2023-02-17T02:57:27.898Z,2.32
2023-02-17T02:59:01.483Z,2.32
2023-02-17T03:00:26.576Z,2.32
2023-02-17T03:01:48.671Z,2.34
2023-02-17T03:03:08.993Z,2.34
2023-02-17T03:04:19.960Z,2.34
2023-02-17T03:05:46.729Z,2.34
2023-02-17T03:06:59.717Z,2.35
2023-02-17T03:08:16.514Z,2.34
2023-02-17T03:09:24.709Z,2.34
2023-02-17T03:10:26.794Z,2.34
2023-02-17T03:11:34.636Z,2.34
2023-02-17T03:12:39.412Z,2.35
2023-02-17T03:13:42.374Z,2.37
2023-02-17T03:14:46.910Z,2.39
2023-02-17T03:15:49.978Z,2.41
2023-02-17T03:16:52.911Z,2.43
2023-02-17T03:18:03.523Z,2.43
2023-02-17T03:19:06.885Z,2.45
2023-02-17T03:20:09.566Z,2.46
2023-02-17T03:21:16.394Z,2.47
2023-02-17T03:22:35.060Z,2.47
2023-02-17T03:23:36.871Z,2.47
2023-02-17T03:24:38.569Z,2.48
2023-02-17T03:25:41.645Z,2.49
2023-02-17T03:26:43.456Z,2.49
2023-02-17T03:27:45.231Z,2.49
2023-02-17T03:28:48.406Z,2.49
2023-02-17T03:29:50.358Z,2.49
2023-02-17T03:30:53.077Z,2.48
2023-02-17T03:31:54.952Z,2.47
2023-02-17T03:32:57.077Z,2.46
2023-02-17T03:34:00.639Z,2.45
2023-02-17T03:35:02.782Z,2.43
2023-02-17T03:36:05.154Z,2.42
2023-02-17T03:37:07.065Z,2.41
2023-02-17T03:38:08.788Z,2.40
2023-02-17T03:39:10.582Z,2.39
2023-02-17T03:40:12.493Z,2.39
2023-02-17T03:41:14.382Z,2.37
2023-02-17T03:42:16.106Z,2.36
2023-02-17T03:43:18.229Z,2.36
2023-02-17T03:44:20.365Z,2.35
2023-02-17T03:45:22.163Z,2.34
2023-02-17T03:46:23.859Z,2.34
2023-02-17T03:47:26.097Z,2.34
2023-02-17T03:48:28.070Z,2.35
2023-02-17T03:49:29.897Z,2.36
2023-02-17T03:50:31.716Z,2.37
2023-02-17T03:51:33.471Z,2.38
2023-02-17T03:52:35.325Z,2.38
2023-02-17T03:53:37.109Z,2.39
2023-02-17T03:54:38.874Z,2.39
2023-02-17T03:55:40.672Z,2.40
2023-02-17T03:56:42.492Z,2.40
2023-02-17T03:57:44.228Z,2.41
2023-02-17T03:58:46.136Z,2.41
2023-02-17T03:59:47.906Z,2.40
2023-02-17T04:00:50.123Z,2.41
2023-02-17T04:01:51.844Z,2.42
2023-02-17T04:02:53.609Z,2.43
2023-02-17T04:03:55.553Z,2.45
2023-02-17T04:04:57.759Z,2.47
2023-02-17T04:05:59.969Z,2.46
2023-02-17T04:07:02.081Z,2.46
2023-02-17T04:08:03.854Z,2.46
2023-02-17T04:09:05.607Z,2.45
2023-02-17T04:10:09.386Z,2.45
2023-02-17T04:11:11.553Z,2.44
2023-02-17T04:12:13.260Z,2.45
2023-02-17T04:13:15.012Z,2.45
2023-02-17T04:14:16.749Z,2.46
2023-02-17T04:15:18.639Z,2.47
2023-02-17T04:16:20.509Z,2.47
2023-02-17T04:17:22.207Z,2.47
2023-02-17T04:18:24.357Z,2.48
2023-02-17T04:19:26.149Z,2.49
2023-02-17T04:20:28.312Z,2.49
2023-02-17T04:21:30.241Z,2.48
2023-02-17T04:22:32.341Z,2.48
2023-02-17T04:23:36.072Z,2.48
2023-02-17T04:24:38.164Z,2.48
2023-02-17T04:25:41.070Z,2.48
2023-02-17T04:26:43.181Z,2.49
2023-02-17T04:27:44.959Z,2.48
2023-02-17T04:28:46.654Z,2.49
2023-02-17T04:29:48.552Z,2.48
2023-02-17T04:30:51.606Z,2.49
2023-02-17T04:31:53.555Z,2.49
2023-02-17T04:32:55.353Z,2.47
2023-02-17T04:33:57.393Z,2.48
2023-02-17T04:34:59.312Z,2.47
2023-02-17T04:36:02.016Z,2.44
2023-02-17T04:37:03.914Z,2.43
2023-02-17T04:38:07.426Z,2.42
2023-02-17T04:39:09.121Z,2.42
2023-02-17T04:40:11.633Z,2.42
2023-02-17T04:41:13.452Z,2.42
2023-02-17T04:42:15.253Z,2.43
2023-02-17T04:43:16.989Z,2.43
2023-02-17T04:44:18.843Z,2.43
2023-02-17T04:45:20.701Z,2.43
2023-02-17T04:46:22.473Z,2.42
2023-02-17T04:47:24.299Z,2.41
2023-02-17T04:48:26.608Z,2.41
2023-02-17T04:49:28.684Z,2.41
2023-02-17T04:50:30.552Z,2.41
2023-02-17T04:51:32.303Z,2.41
2023-02-17T04:52:34.037Z,2.40
2023-02-17T04:53:36.092Z,2.39
2023-02-17T04:54:37.889Z,2.40
2023-02-17T04:55:40.811Z,2.39
2023-02-17T04:56:42.532Z,2.40
2023-02-17T04:57:44.375Z,2.41
2023-02-17T04:58:46.229Z,2.41
2023-02-17T04:59:47.981Z,2.42
2023-02-17T05:00:50.808Z,2.42
2023-02-17T05:01:52.554Z,2.42
2023-02-17T05:02:54.307Z,2.42
2023-02-17T05:03:56.074Z,2.42
2023-02-17T05:04:58.076Z,2.42
2023-02-17T05:05:59.923Z,2.41
2023-02-17T05:07:01.796Z,2.41
2023-02-17T05:08:03.902Z,2.41
2023-02-17T05:09:05.842Z,2.40
2023-02-17T05:10:08.080Z,2.39
2023-02-17T05:11:09.793Z,2.40
2023-02-17T05:12:11.601Z,2.39
2023-02-17T05:13:13.438Z,2.39
2023-02-17T05:14:15.233Z,2.39
2023-02-17T05:15:17.046Z,2.39
2023-02-17T05:16:18.804Z,2.38
2023-02-17T05:17:20.724Z,2.39
2023-02-17T05:18:22.444Z,2.39
2023-02-17T05:19:24.400Z,2.41
2023-02-17T05:20:26.156Z,2.40
2023-02-17T05:21:28.388Z,2.39
2023-02-17T05:22:30.150Z,2.39
2023-02-17T05:23:32.063Z,2.39
2023-02-17T05:24:33.831Z,2.40
2023-02-17T05:25:35.562Z,2.40
2023-02-17T05:26:37.386Z,2.41
2023-02-17T05:27:39.126Z,2.41
2023-02-17T05:28:40.879Z,2.42
2023-02-17T05:29:42.910Z,2.42
2023-02-17T05:30:44.652Z,2.42
2023-02-17T05:31:46.487Z,2.43
2023-02-17T05:32:48.332Z,2.43
2023-02-17T05:33:50.482Z,2.43
2023-02-17T05:34:52.206Z,2.43
2023-02-17T05:35:53.981Z,2.42
2023-02-17T05:36:55.693Z,2.41
2023-02-17T05:37:57.433Z,2.41
2023-02-17T05:38:59.365Z,2.41
2023-02-17T05:40:01.191Z,2.42
2023-02-17T05:41:03.995Z,2.42
2023-02-17T05:42:05.874Z,2.43
2023-02-17T05:43:07.594Z,2.44
2023-02-17T05:44:09.364Z,2.45
2023-02-17T05:45:11.404Z,2.45
2023-02-17T05:46:13.606Z,2.45
2023-02-17T05:47:15.466Z,2.46
2023-02-17T05:48:17.340Z,2.46
2023-02-17T05:49:19.184Z,2.47
2023-02-17T05:50:21.119Z,2.48
2023-02-17T05:51:24.193Z,2.47
2023-02-17T05:52:26.161Z,2.46
2023-02-17T05:53:27.955Z,2.47
2023-02-17T05:54:29.933Z,2.48
2023-02-17T05:55:31.950Z,2.48
2023-02-17T05:56:33.709Z,2.51
2023-02-17T05:57:35.568Z,2.52
2023-02-17T05:58:37.392Z,2.52
2023-02-17T05:59:39.096Z,2.54
2023-02-17T06:00:41.264Z,2.54
2023-02-17T06:01:43.024Z,2.55
2023-02-17T06:02:44.859Z,2.55
2023-02-17T06:03:46.660Z,2.54
2023-02-17T06:04:48.544Z,2.54
2023-02-17T06:05:50.984Z,2.54
2023-02-17T06:06:52.751Z,2.53
2023-02-17T06:07:54.493Z,2.53
2023-02-17T06:08:56.250Z,2.53
2023-02-17T06:09:58.638Z,2.53
2023-02-17T06:11:00.663Z,2.55
2023-02-17T06:12:02.390Z,2.57
2023-02-17T06:13:04.173Z,2.60
2023-02-17T06:14:05.933Z,2.61
2023-02-17T06:15:08.084Z,2.62
2023-02-17T06:16:10.202Z,2.64
2023-02-17T06:17:12.030Z,2.64
2023-02-17T06:18:13.983Z,2.66
2023-02-17T06:19:15.800Z,2.66
2023-02-17T06:20:17.646Z,2.67
2023-02-17T06:21:19.614Z,2.67
2023-02-17T06:22:21.631Z,2.65
2023-02-17T06:23:26.898Z,2.65
2023-02-17T06:24:28.991Z,2.66
2023-02-17T06:25:31.780Z,2.65
2023-02-17T06:26:33.632Z,2.66
2023-02-17T06:27:35.588Z,2.66
2023-02-17T06:28:37.368Z,2.68
2023-02-17T06:29:39.183Z,2.69
2023-02-17T06:30:40.913Z,2.69
2023-02-17T06:31:42.843Z,2.70
2023-02-17T06:32:44.717Z,2.71
2023-02-17T06:33:46.709Z,2.72
2023-02-17T06:34:48.446Z,2.73
2023-02-17T06:35:52.166Z,2.73
2023-02-17T06:36:54.202Z,2.74
2023-02-17T06:37:55.964Z,2.74
2023-02-17T06:38:57.674Z,2.75
2023-02-17T06:39:59.781Z,2.76
2023-02-17T06:41:01.512Z,2.77
2023-02-17T06:42:03.590Z,2.77
2023-02-17T06:43:06.606Z,2.79
2023-02-17T06:44:08.871Z,2.80
2023-02-17T06:45:10.688Z,2.81
2023-02-17T06:46:12.479Z,2.82
2023-02-17T06:47:14.434Z,2.85
2023-02-17T06:48:16.296Z,2.86
2023-02-17T06:49:18.174Z,2.87
2023-02-17T06:50:20.017Z,2.87
2023-02-17T06:51:21.859Z,2.88
2023-02-17T06:52:23.610Z,2.88
2023-02-17T06:53:25.561Z,2.89
2023-02-17T06:54:27.533Z,2.91
2023-02-17T06:55:29.479Z,2.93
2023-02-17T06:56:31.291Z,2.94
2023-02-17T06:57:33.083Z,2.96
2023-02-17T06:58:37.090Z,2.97
2023-02-17T06:59:38.837Z,2.99
2023-02-17T07:00:40.552Z,3.00
2023-02-17T07:01:42.333Z,3.03
2023-02-17T07:02:44.228Z,3.04
2023-02-17T07:03:47.229Z,3.05
2023-02-17T07:04:49.152Z,3.06
2023-02-17T07:05:51.410Z,3.06
2023-02-17T07:06:53.228Z,3.04
2023-02-17T07:07:57.881Z,3.03
2023-02-17T07:09:01.459Z,3.03
2023-02-17T07:10:04.608Z,3.01
2023-02-17T07:11:07.195Z,3.00
2023-02-17T07:12:09.063Z,2.98
2023-02-17T07:13:10.945Z,2.97
2023-02-17T07:14:12.693Z,2.96
2023-02-17T07:15:15.041Z,2.96
2023-02-17T07:16:16.943Z,2.97
2023-02-17T07:17:18.812Z,2.98
2023-02-17T07:18:20.573Z,2.99
2023-02-17T07:19:22.552Z,3.00
2023-02-17T07:20:24.305Z,2.99
2023-02-17T07:21:26.022Z,2.99
2023-02-17T07:22:27.806Z,3.00
2023-02-17T07:23:30.247Z,3.01
2023-02-17T07:24:33.970Z,3.02
2023-02-17T07:25:36.051Z,3.03
2023-02-17T07:26:40.119Z,3.06
2023-02-17T07:27:41.870Z,3.08
2023-02-17T07:28:44.538Z,3.09
2023-02-17T07:29:46.293Z,3.11
2023-02-17T07:30:48.035Z,3.11
2023-02-17T07:31:50.186Z,3.11
2023-02-17T07:32:52.267Z,3.12
2023-02-17T07:33:54.131Z,3.11
2023-02-17T07:34:55.953Z,3.11
2023-02-17T07:35:57.870Z,3.11
2023-02-17T07:36:59.845Z,3.11
2023-02-17T07:38:01.742Z,3.12
2023-02-17T07:39:04.168Z,3.12
2023-02-17T07:40:06.759Z,3.13
2023-02-17T07:41:12.536Z,3.15
2023-02-17T07:42:15.025Z,3.15
2023-02-17T07:43:16.826Z,3.15
2023-02-17T07:44:20.026Z,3.14
2023-02-17T07:45:21.947Z,3.14
2023-02-17T07:46:24.703Z,3.14
2023-02-17T07:47:26.524Z,3.14
2023-02-17T07:48:28.384Z,3.12
2023-02-17T07:49:30.260Z,3.12
2023-02-17T07:50:32.317Z,3.12
2023-02-17T07:51:34.275Z,3.12
2023-02-17T07:52:36.099Z,3.13
2023-02-17T07:53:38.975Z,3.14
2023-02-17T07:54:40.933Z,3.15
2023-02-17T07:55:42.705Z,3.18
2023-02-17T07:56:44.642Z,3.21
2023-02-17T07:57:46.371Z,3.23
2023-02-17T07:58:49.146Z,3.25
2023-02-17T07:59:51.303Z,3.27
2023-02-17T08:00:53.068Z,3.27
2023-02-17T08:01:54.936Z,3.29
2023-02-17T08:02:56.675Z,3.30
2023-02-17T08:03:58.706Z,3.32
2023-02-17T08:05:00.644Z,3.34
2023-02-17T08:06:02.784Z,3.35
2023-02-17T08:07:04.654Z,3.36
2023-02-17T08:08:24.847Z,3.38
2023-02-17T08:09:45.329Z,3.42
2023-02-17T08:11:05.912Z,3.46
2023-02-17T08:12:35.148Z,3.49
2023-02-17T08:13:37.394Z,3.53
2023-02-17T08:14:39.253Z,3.53
2023-02-17T08:15:41.543Z,3.56
2023-02-17T08:16:43.556Z,3.56
2023-02-17T08:17:45.487Z,3.57
2023-02-17T08:18:47.204Z,3.58
2023-02-17T08:19:49.635Z,3.58
2023-02-17T08:20:52.329Z,3.58
2023-02-17T08:21:54.350Z,3.60
2023-02-17T08:22:56.172Z,3.62
2023-02-17T08:23:58.054Z,3.63
2023-02-17T08:25:00.160Z,3.64
2023-02-17T08:26:02.201Z,3.65
2023-02-17T08:27:03.979Z,3.65
2023-02-17T08:28:06.420Z,3.65
2023-02-17T08:29:08.878Z,3.65
2023-02-17T08:30:12.226Z,3.65
2023-02-17T08:31:25.213Z,3.64
2023-02-17T08:32:27.371Z,3.63
2023-02-17T08:33:29.166Z,3.63
2023-02-17T08:34:33.993Z,3.64
2023-02-17T08:35:35.827Z,3.67
2023-02-17T08:36:37.776Z,3.69
2023-02-17T08:37:39.579Z,3.71
2023-02-17T08:38:42.244Z,3.73
2023-02-17T08:39:44.061Z,3.74
2023-02-17T08:40:45.873Z,3.76
2023-02-17T08:41:48.720Z,3.78
2023-02-17T08:42:51.246Z,3.79
2023-02-17T08:43:53.079Z,3.81
2023-02-17T08:44:55.065Z,3.82
2023-02-17T08:45:56.819Z,3.84
2023-02-17T08:46:58.944Z,3.86
2023-02-17T08:48:00.747Z,3.88
2023-02-17T08:49:02.767Z,3.90
2023-02-17T08:50:07.840Z,3.94
2023-02-17T08:51:13.950Z,3.96
2023-02-17T08:52:15.794Z,4.00
2023-02-17T08:53:17.567Z,4.01
2023-02-17T08:54:19.809Z,4.03
2023-02-17T08:55:23.524Z,4.05
2023-02-17T08:56:27.488Z,4.07
2023-02-17T08:57:29.687Z,4.08
2023-02-17T08:58:31.908Z,4.10
2023-02-17T08:59:33.739Z,4.11
2023-02-17T09:00:35.537Z,4.15
2023-02-17T09:01:38.839Z,4.16
2023-02-17T09:02:43.589Z,4.18
2023-02-17T09:03:48.240Z,4.20
2023-02-17T09:04:49.978Z,4.20
2023-02-17T09:05:56.227Z,4.20
2023-02-17T09:06:58.731Z,4.19
2023-02-17T09:08:01.024Z,4.19
2023-02-17T09:09:04.199Z,4.19
2023-02-17T09:10:14.180Z,4.20
2023-02-17T09:11:17.323Z,4.21
2023-02-17T09:12:19.069Z,4.23
2023-02-17T09:13:20.976Z,4.24
2023-02-17T09:14:26.084Z,4.24
2023-02-17T09:15:27.958Z,4.25
2023-02-17T09:16:30.147Z,4.26
2023-02-17T09:17:32.190Z,4.28
2023-02-17T09:18:34.193Z,4.30
2023-02-17T09:19:39.287Z,4.29
2023-02-17T09:20:41.165Z,4.30
2023-02-17T09:21:42.923Z,4.30
2023-02-17T09:22:44.759Z,4.31
2023-02-17T09:23:47.393Z,4.30
2023-02-17T09:24:49.210Z,4.32
2023-02-17T09:26:08.672Z,4.32
2023-02-17T09:27:10.780Z,4.32
2023-02-17T09:28:13.987Z,4.29
2023-02-17T09:29:15.772Z,4.28
2023-02-17T09:30:17.798Z,4.28
2023-02-17T09:31:26.370Z,4.29
2023-02-17T09:32:28.395Z,4.27
2023-02-17T09:33:31.453Z,4.26
2023-02-17T09:34:38.391Z,4.24
2023-02-17T09:35:40.483Z,4.23
2023-02-17T09:36:42.992Z,4.20
2023-02-17T09:37:45.603Z,4.15
2023-02-17T09:38:47.789Z,4.13
2023-02-17T09:39:49.549Z,4.12
2023-02-17T09:40:51.763Z,4.11
2023-02-17T09:41:55.461Z,4.11
2023-02-17T09:42:57.244Z,4.12
2023-02-17T09:44:00.065Z,4.12
2023-02-17T09:45:09.614Z,4.12
2023-02-17T09:46:44.852Z,4.13
2023-02-17T09:48:05.587Z,4.12
2023-02-17T09:49:22.702Z,4.13
2023-02-17T09:50:45.979Z,4.13
2023-02-17T09:52:00.037Z,4.11
2023-02-17T09:53:11.970Z,4.09
2023-02-17T09:54:24.316Z,4.09
2023-02-17T09:55:36.284Z,4.08
2023-02-17T09:56:43.140Z,4.07
2023-02-17T09:58:02.531Z,4.07
2023-02-17T09:59:34.333Z,4.06
2023-02-17T10:00:47.934Z,4.07
2023-02-17T10:01:53.932Z,4.06
2023-02-17T10:03:00.604Z,4.06
2023-02-17T10:04:15.026Z,4.06
2023-02-17T10:05:23.400Z,4.06
2023-02-17T10:06:35.993Z,4.06
2023-02-17T10:08:16.519Z,4.06
2023-02-17T10:09:41.797Z,4.07
2023-02-17T10:10:51.821Z,4.08
2023-02-17T10:12:01.822Z,4.09
2023-02-17T10:13:07.819Z,4.11
2023-02-17T10:14:34.915Z,4.13
2023-02-17T10:15:45.154Z,4.16
2023-02-17T10:17:03.443Z,4.18
2023-02-17T10:18:16.247Z,4.21
2023-02-17T10:19:41.157Z,4.23
2023-02-17T10:20:52.498Z,4.22
2023-02-17T10:22:07.712Z,4.23
2023-02-17T10:23:24.009Z,4.24
2023-02-17T10:24:25.895Z,4.27
2023-02-17T10:26:05.278Z,4.28
2023-02-17T10:27:30.267Z,4.32
2023-02-17T10:28:34.789Z,4.34
2023-02-17T10:30:01.915Z,4.35
2023-02-17T10:31:20.332Z,4.38
2023-02-17T10:32:25.867Z,4.40
2023-02-17T10:33:38.645Z,4.42
2023-02-17T10:34:59.263Z,4.43
2023-02-17T10:36:10.725Z,4.46
2023-02-17T10:37:14.459Z,4.49
2023-02-17T10:38:41.935Z,4.49
2023-02-17T10:40:01.934Z,4.51
2023-02-17T10:41:07.026Z,4.55
2023-02-17T10:42:25.159Z,4.58
2023-02-17T10:43:31.509Z,4.60
2023-02-17T10:44:37.955Z,4.61
2023-02-17T10:45:49.501Z,4.61
2023-02-17T10:46:54.122Z,4.59
2023-02-17T10:48:11.857Z,4.59
2023-02-17T10:49:49.970Z,4.60
2023-02-17T10:50:59.304Z,4.60
2023-02-17T10:52:17.260Z,4.59
2023-02-17T10:53:25.423Z,4.60
2023-02-17T10:54:39.337Z,4.60
2023-02-17T10:55:54.554Z,4.61
2023-02-17T10:57:01.302Z,4.62
2023-02-17T10:58:17.932Z,4.63
2023-02-17T10:59:35.737Z,4.62
2023-02-17T11:00:37.680Z,4.64
2023-02-17T11:01:39.445Z,4.64
2023-02-17T11:02:51.810Z,4.65
2023-02-17T11:04:12.271Z,4.66
2023-02-17T11:05:24.797Z,4.66
2023-02-17T11:06:26.841Z,4.67
2023-02-17T11:07:41.956Z,4.67
2023-02-17T11:08:54.256Z,4.67
2023-02-17T11:10:02.585Z,4.67
2023-02-17T11:11:06.046Z,4.67
2023-02-17T11:12:15.566Z,4.67
2023-02-17T11:13:40.767Z,4.67
2023-02-17T11:14:48.817Z,4.67
2023-02-17T11:15:50.903Z,4.69
2023-02-17T11:16:59.599Z,4.69
2023-02-17T11:18:11.314Z,4.69
2023-02-17T11:19:29.328Z,4.70
2023-02-17T11:20:36.036Z,4.71
2023-02-17T11:21:43.771Z,4.71
2023-02-17T11:22:59.709Z,4.72
2023-02-17T11:24:04.769Z,4.73
2023-02-17T11:25:22.855Z,4.73
2023-02-17T11:26:28.265Z,4.75
2023-02-17T11:27:30.128Z,4.75
2023-02-17T11:28:31.965Z,4.75
2023-02-17T11:29:34.262Z,4.77
2023-02-17T11:30:36.670Z,4.77
2023-02-17T11:31:38.708Z,4.77
2023-02-17T11:32:40.548Z,4.78
2023-02-17T11:33:42.270Z,4.79
2023-02-17T11:34:44.596Z,4.79
2023-02-17T11:35:53.835Z,4.80
2023-02-17T11:37:01.361Z,4.80
2023-02-17T11:38:18.420Z,4.79
2023-02-17T11:39:22.368Z,4.80
2023-02-17T11:40:31.319Z,4.80
2023-02-17T11:41:40.981Z,4.81
2023-02-17T11:42:42.755Z,4.81
2023-02-17T11:44:00.619Z,4.81
2023-02-17T11:45:18.641Z,4.81
2023-02-17T11:46:26.410Z,4.80
2023-02-17T11:47:49.064Z,4.80
2023-02-17T11:49:16.119Z,4.82
2023-02-17T11:50:41.249Z,4.84
2023-02-17T11:52:02.385Z,4.85
2023-02-17T11:53:20.920Z,4.85
2023-02-17T11:54:56.892Z,4.85
2023-02-17T11:56:30.199Z,4.86
2023-02-17T11:57:55.814Z,4.86
2023-02-17T11:59:22.229Z,4.86
2023-02-17T12:00:59.675Z,4.86
2023-02-17T12:02:04.792Z,4.87
2023-02-17T12:03:12.656Z,4.87
2023-02-17T12:04:32.052Z,4.87
2023-02-17T12:05:42.567Z,4.86
2023-02-17T12:07:04.194Z,4.87
2023-02-17T12:08:21.514Z,4.89
2023-02-17T12:09:54.266Z,4.88
2023-02-17T12:11:12.102Z,4.88
2023-02-17T12:12:44.186Z,4.89
2023-02-17T12:14:10.849Z,4.90
2023-02-17T12:15:48.112Z,4.91
2023-02-17T12:17:22.414Z,4.92
2023-02-17T12:18:36.271Z,4.95
2023-02-17T12:19:46.754Z,4.95
2023-02-17T12:20:54.413Z,4.96
2023-02-17T12:22:16.598Z,4.97
2023-02-17T12:23:32.184Z,4.98
2023-02-17T12:24:45.970Z,5.01
2023-02-17T12:25:50.429Z,5.01
2023-02-17T12:27:04.401Z,5.01
2023-02-17T12:28:34.129Z,5.02
2023-02-17T12:30:12.673Z,5.00
2023-02-17T12:31:37.197Z,5.01
2023-02-17T12:33:06.913Z,5.01
2023-02-17T12:34:25.517Z,5.01
2023-02-17T12:35:51.041Z,5.02
2023-02-17T12:36:57.475Z,5.02
2023-02-17T12:38:15.068Z,5.04
2023-02-17T12:39:30.642Z,5.04
2023-02-17T12:40:47.988Z,5.04
2023-02-17T12:42:12.516Z,5.04
2023-02-17T12:43:41.713Z,5.06
2023-02-17T12:44:49.558Z,5.07
2023-02-17T12:45:56.804Z,5.09
2023-02-17T12:47:09.364Z,5.10
2023-02-17T12:48:23.408Z,5.10
2023-02-17T12:49:41.004Z,5.11
2023-02-17T12:51:03.372Z,5.12
2023-02-17T12:52:13.370Z,5.12
2023-02-17T12:53:29.002Z,5.13
2023-02-17T12:54:57.407Z,5.14
2023-02-17T12:56:08.431Z,5.14
2023-02-17T12:57:10.435Z,5.13
2023-02-17T12:58:18.631Z,5.13
2023-02-17T12:59:42.941Z,5.13
2023-02-17T13:01:10.838Z,5.14
2023-02-17T13:02:16.178Z,5.15
2023-02-17T13:03:19.138Z,5.14
2023-02-17T13:04:24.974Z,5.14
2023-02-17T13:06:02.852Z,5.13
2023-02-17T13:07:07.632Z,5.13
2023-02-17T13:08:14.329Z,5.14
2023-02-17T13:09:39.877Z,5.14
2023-02-17T13:10:41.780Z,5.14
2023-02-17T13:11:45.583Z,5.15
2023-02-17T13:13:10.164Z,5.16
2023-02-17T13:14:38.811Z,5.17
2023-02-17T13:15:44.736Z,5.17
2023-02-17T13:16:47.536Z,5.18
2023-02-17T13:18:02.425Z,5.19
2023-02-17T13:19:08.499Z,5.20
2023-02-17T13:20:10.234Z,5.20
2023-02-17T13:21:28.723Z,5.19
2023-02-17T13:22:30.691Z,5.20
2023-02-17T13:23:42.166Z,5.19
2023-02-17T13:24:55.537Z,5.18
2023-02-17T13:26:16.783Z,5.19
2023-02-17T13:27:31.205Z,5.18
2023-02-17T13:28:37.076Z,5.17
2023-02-17T13:29:39.507Z,5.18
2023-02-17T13:30:45.196Z,5.18
2023-02-17T13:31:54.697Z,5.18
2023-02-17T13:33:05.115Z,5.20
2023-02-17T13:34:09.365Z,5.21
2023-02-17T13:35:14.096Z,5.22
2023-02-17T13:36:22.473Z,5.24
2023-02-17T13:37:39.285Z,5.24
2023-02-17T13:39:01.674Z,5.25
2023-02-17T13:40:24.488Z,5.24
2023-02-17T13:41:27.907Z,5.24
2023-02-17T13:42:36.758Z,5.24
2023-02-17T13:43:43.019Z,5.24
2023-02-17T13:44:46.746Z,5.24
2023-02-17T13:46:00.961Z,5.24
2023-02-17T13:47:11.711Z,5.25
2023-02-17T13:48:22.244Z,5.25
2023-02-17T13:49:27.790Z,5.26
2023-02-17T13:50:38.982Z,5.26
2023-02-17T13:51:40.958Z,5.28
2023-02-17T13:52:43.650Z,5.27
2023-02-17T13:53:50.424Z,5.28
2023-02-17T13:54:53.468Z,5.30
2023-02-17T13:56:03.258Z,5.29
2023-02-17T13:57:05.285Z,5.30
2023-02-17T13:58:10.319Z,5.29
2023-02-17T13:59:20.460Z,5.29
2023-02-17T14:00:26.926Z,5.29
2023-02-17T14:01:28.876Z,5.29
2023-02-17T14:02:36.343Z,5.29
2023-02-17T14:03:55.278Z,5.29
2023-02-17T14:04:57.634Z,5.29
2023-02-17T14:06:02.502Z,5.30
2023-02-17T14:07:05.636Z,5.31
2023-02-17T14:08:34.889Z,5.32
2023-02-17T14:09:37.007Z,5.33
2023-02-17T14:10:39.387Z,5.35
2023-02-17T14:11:41.765Z,5.35
2023-02-17T14:12:43.735Z,5.33
2023-02-17T14:13:51.304Z,5.35
2023-02-17T14:14:53.240Z,5.33
2023-02-17T14:15:58.877Z,5.30
2023-02-17T14:17:04.553Z,5.28
2023-02-17T14:18:26.955Z,5.27
2023-02-17T14:19:41.092Z,5.26
2023-02-17T14:20:43.152Z,5.22
2023-02-17T14:22:00.313Z,5.21
2023-02-17T14:23:06.132Z,5.20
2023-02-17T14:24:23.195Z,5.19
2023-02-17T14:25:31.157Z,5.19
2023-02-17T14:26:48.841Z,5.18
2023-02-17T14:27:51.237Z,5.18
2023-02-17T14:29:01.761Z,5.17
2023-02-17T14:30:05.710Z,5.18
2023-02-17T14:31:10.511Z,5.18
2023-02-17T14:32:33.258Z,5.18
2023-02-17T14:33:35.059Z,5.17
2023-02-17T14:34:37.193Z,5.17
2023-02-17T14:35:50.580Z,5.17
2023-02-17T14:36:52.836Z,5.17
2023-02-17T14:37:54.726Z,5.16
2023-02-17T14:38:58.305Z,5.16
2023-02-17T14:40:00.284Z,5.16
2023-02-17T14:41:02.196Z,5.17
2023-02-17T14:42:04.281Z,5.16
2023-02-17T14:43:06.146Z,5.16
2023-02-17T14:44:08.474Z,5.15
2023-02-17T14:45:10.282Z,5.16
2023-02-17T14:46:12.051Z,5.15
2023-02-17T14:47:13.843Z,5.17
2023-02-17T14:48:15.775Z,5.17
2023-02-17T14:49:17.597Z,5.18
2023-02-17T14:50:19.353Z,5.18